Terminal Aerodrome Forecast
Issued by NWS

Home | Current Version | Previous Version | Text Only | Print | Product List | Glossary On
Versions: 1 2 3 4 5 6 7 8 9 10 11 12 13 14 15 16 17 18 19 20 21 22 23 24 25 26 27 28 29 30 31
000
FTUS44 KLZK 060500
TAFLIT
TAF
KLIT 060536Z 0606/0706 18005KT P6SM FEW040 SCT250
     FM061000 17005KT P6SM VCSH BKN050
      TEMPO 0610/0614 4SM BR BKN015
     FM061600 20008G15KT P6SM VCTS SCT030CB BKN250
     FM061800 21010G18KT P6SM VCTS SCT030CB BKN100 BKN250=

USA.gov is the U.S. government's official web portal to all federal, state and local government web resources and services.